sensor_id;sensor_type;location;lat;lon;timestamp;temperature;humidity
56374;DHT22;58212;47.034;7.376;2023-02-08T00:01:55;-0.70;99.90
56374;DHT22;58212;47.034;7.376;2023-02-08T00:04:22;-0.60;99.90
56374;DHT22;58212;47.034;7.376;2023-02-08T00:06:52;-0.50;99.90
56374;DHT22;58212;47.034;7.376;2023-02-08T00:09:18;-0.50;99.90
56374;DHT22;58212;47.034;7.376;2023-02-08T00:11:46;-0.60;99.90
56374;DHT22;58212;47.034;7.376;2023-02-08T00:14:12;-0.30;99.90
56374;DHT22;58212;47.034;7.376;2023-02-08T00:16:40;-0.20;99.90
56374;DHT22;58212;47.034;7.376;2023-02-08T00:19:06;-0.20;99.90
56374;DHT22;58212;47.034;7.376;2023-02-08T00:21:33;-0.50;99.90
56374;DHT22;58212;47.034;7.376;2023-02-08T00:24:02;-0.40;99.90
56374;DHT22;58212;47.034;7.376;2023-02-08T00:26:29;-0.20;99.90
56374;DHT22;58212;47.034;7.376;2023-02-08T00:28:59;-0.30;99.90
56374;DHT22;58212;47.034;7.376;2023-02-08T00:31:26;-0.40;99.90
56374;DHT22;58212;47.034;7.376;2023-02-08T00:33:54;-0.60;99.90
56374;DHT22;58212;47.034;7.376;2023-02-08T00:36:21;-0.60;99.90
56374;DHT22;58212;47.034;7.376;2023-02-08T00:38:48;-0.50;99.90
56374;DHT22;58212;47.034;7.376;2023-02-08T00:41:19;-0.20;99.90
56374;DHT22;58212;47.034;7.376;2023-02-08T00:43:46;-0.30;99.90
56374;DHT22;58212;47.034;7.376;2023-02-08T00:46:13;-0.50;99.90
56374;DHT22;58212;47.034;7.376;2023-02-08T00:48:40;-0.50;99.90
56374;DHT22;58212;47.034;7.376;2023-02-08T00:51:09;-0.40;99.90
56374;DHT22;58212;47.034;7.376;2023-02-08T00:53:41;-0.30;99.90
56374;DHT22;58212;47.034;7.376;2023-02-08T00:56:10;-0.40;99.90
56374;DHT22;58212;47.034;7.376;2023-02-08T00:58:40;-0.40;99.90
56374;DHT22;58212;47.034;7.376;2023-02-08T01:01:07;-0.30;99.90
56374;DHT22;58212;47.034;7.376;2023-02-08T01:03:36;-0.40;99.90
56374;DHT22;58212;47.034;7.376;2023-02-08T01:06:05;-0.20;99.90
56374;DHT22;58212;47.034;7.376;2023-02-08T01:08:33;-0.20;99.90
56374;DHT22;58212;47.034;7.376;2023-02-08T01:11:04;-0.30;99.90
56374;DHT22;58212;47.034;7.376;2023-02-08T01:13:33;-0.50;99.90
56374;DHT22;58212;47.034;7.376;2023-02-08T01:16:10;-0.20;99.90
56374;DHT22;58212;47.034;7.376;2023-02-08T01:19:04;-0.20;99.90
56374;DHT22;58212;47.034;7.376;2023-02-08T01:22:00;-0.10;99.90
56374;DHT22;58212;47.034;7.376;2023-02-08T01:24:27;-0.40;99.90
56374;DHT22;58212;47.034;7.376;2023-02-08T01:26:56;-0.40;99.90
56374;DHT22;58212;47.034;7.376;2023-02-08T01:29:23;-0.40;99.90
56374;DHT22;58212;47.034;7.376;2023-02-08T01:31:52;-0.70;99.90
56374;DHT22;58212;47.034;7.376;2023-02-08T01:34:20;-0.80;99.90
56374;DHT22;58212;47.034;7.376;2023-02-08T01:36:47;-0.50;99.90
56374;DHT22;58212;47.034;7.376;2023-02-08T01:39:39;-0.70;99.90
56374;DHT22;58212;47.034;7.376;2023-02-08T01:42:09;-0.90;99.90
56374;DHT22;58212;47.034;7.376;2023-02-08T01:48:20;-0.50;99.90
56374;DHT22;58212;47.034;7.376;2023-02-08T01:50:52;-0.50;99.90
56374;DHT22;58212;47.034;7.376;2023-02-08T01:53:22;-0.80;99.90
56374;DHT22;58212;47.034;7.376;2023-02-08T01:55:52;-0.70;99.90
56374;DHT22;58212;47.034;7.376;2023-02-08T01:58:21;-0.70;99.90
56374;DHT22;58212;47.034;7.376;2023-02-08T02:00:49;-0.80;99.90
56374;DHT22;58212;47.034;7.376;2023-02-08T02:03:17;-0.60;99.90
56374;DHT22;58212;47.034;7.376;2023-02-08T02:05:48;-0.60;99.90
56374;DHT22;58212;47.034;7.376;2023-02-08T02:08:15;-0.50;99.90
56374;DHT22;58212;47.034;7.376;2023-02-08T02:10:43;-0.50;99.90
56374;DHT22;58212;47.034;7.376;2023-02-08T02:13:14;-0.60;99.90
56374;DHT22;58212;47.034;7.376;2023-02-08T02:15:45;-0.40;99.90
56374;DHT22;58212;47.034;7.376;2023-02-08T02:18:19;-0.70;99.90
56374;DHT22;58212;47.034;7.376;2023-02-08T02:21:08;-0.70;99.90
56374;DHT22;58212;47.034;7.376;2023-02-08T02:24:17;-0.60;99.90
56374;DHT22;58212;47.034;7.376;2023-02-08T02:27:21;-0.70;99.90
56374;DHT22;58212;47.034;7.376;2023-02-08T02:33:43;-0.60;99.90
56374;DHT22;58212;47.034;7.376;2023-02-08T02:36:17;-0.70;99.90
56374;DHT22;58212;47.034;7.376;2023-02-08T02:38:56;-0.90;99.90
56374;DHT22;58212;47.034;7.376;2023-02-08T02:41:56;-0.90;99.90
56374;DHT22;58212;47.034;7.376;2023-02-08T02:44:57;-1.20;99.90
56374;DHT22;58212;47.034;7.376;2023-02-08T02:47:37;-1.00;99.90
56374;DHT22;58212;47.034;7.376;2023-02-08T02:50:10;-0.80;99.90
56374;DHT22;58212;47.034;7.376;2023-02-08T02:53:09;-0.90;99.90
56374;DHT22;58212;47.034;7.376;2023-02-08T02:55:41;-0.90;99.90
56374;DHT22;58212;47.034;7.376;2023-02-08T02:58:11;-1.10;99.90
56374;DHT22;58212;47.034;7.376;2023-02-08T03:00:39;-0.90;99.90
56374;DHT22;58212;47.034;7.376;2023-02-08T03:03:15;-0.80;99.90
56374;DHT22;58212;47.034;7.376;2023-02-08T03:05:47;-1.00;99.90
56374;DHT22;58212;47.034;7.376;2023-02-08T03:08:27;-0.70;99.90
56374;DHT22;58212;47.034;7.376;2023-02-08T03:11:15;-0.60;99.90
56374;DHT22;58212;47.034;7.376;2023-02-08T03:14:14;-0.90;99.90
56374;DHT22;58212;47.034;7.376;2023-02-08T03:17:01;-0.90;99.90
56374;DHT22;58212;47.034;7.376;2023-02-08T03:19:34;-0.90;99.90
56374;DHT22;58212;47.034;7.376;2023-02-08T03:22:10;-1.00;99.90
56374;DHT22;58212;47.034;7.376;2023-02-08T03:24:45;-1.20;99.90
56374;DHT22;58212;47.034;7.376;2023-02-08T03:27:20;-1.10;99.90
56374;DHT22;58212;47.034;7.376;2023-02-08T03:29:58;-1.10;99.90
56374;DHT22;58212;47.034;7.376;2023-02-08T03:32:35;-1.20;99.90
56374;DHT22;58212;47.034;7.376;2023-02-08T03:35:10;-1.00;99.90
56374;DHT22;58212;47.034;7.376;2023-02-08T03:37:45;-0.80;99.90
56374;DHT22;58212;47.034;7.376;2023-02-08T03:40:19;-1.10;99.90
56374;DHT22;58212;47.034;7.376;2023-02-08T03:42:54;-1.00;99.90
56374;DHT22;58212;47.034;7.376;2023-02-08T03:45:27;-1.10;99.90
56374;DHT22;58212;47.034;7.376;2023-02-08T03:47:59;-1.30;99.90
56374;DHT22;58212;47.034;7.376;2023-02-08T03:50:33;-1.10;99.90
56374;DHT22;58212;47.034;7.376;2023-02-08T03:53:03;-1.30;99.90
56374;DHT22;58212;47.034;7.376;2023-02-08T03:55:33;-1.20;99.90
56374;DHT22;58212;47.034;7.376;2023-02-08T03:58:05;-1.10;99.90
56374;DHT22;58212;47.034;7.376;2023-02-08T04:00:38;-1.10;99.90
56374;DHT22;58212;47.034;7.376;2023-02-08T04:03:11;-1.00;99.90
56374;DHT22;58212;47.034;7.376;2023-02-08T04:05:39;-1.00;99.90
56374;DHT22;58212;47.034;7.376;2023-02-08T04:08:11;-1.10;99.90
56374;DHT22;58212;47.034;7.376;2023-02-08T04:10:38;-1.00;99.90
56374;DHT22;58212;47.034;7.376;2023-02-08T04:13:05;-0.70;99.90
56374;DHT22;58212;47.034;7.376;2023-02-08T04:15:32;-0.90;99.90
56374;DHT22;58212;47.034;7.376;2023-02-08T04:18:03;-1.20;99.90
56374;DHT22;58212;47.034;7.376;2023-02-08T04:20:30;-0.80;99.90
56374;DHT22;58212;47.034;7.376;2023-02-08T04:22:59;-0.70;99.90
56374;DHT22;58212;47.034;7.376;2023-02-08T04:25:27;-0.60;99.90
56374;DHT22;58212;47.034;7.376;2023-02-08T04:27:55;-0.60;99.90
56374;DHT22;58212;47.034;7.376;2023-02-08T04:30:22;-0.70;99.90
56374;DHT22;58212;47.034;7.376;2023-02-08T04:32:49;-0.70;99.90
56374;DHT22;58212;47.034;7.376;2023-02-08T04:35:16;-0.60;99.90
56374;DHT22;58212;47.034;7.376;2023-02-08T04:37:44;-0.60;99.90
56374;DHT22;58212;47.034;7.376;2023-02-08T04:40:11;-0.60;99.90
56374;DHT22;58212;47.034;7.376;2023-02-08T04:42:40;-0.50;99.90
56374;DHT22;58212;47.034;7.376;2023-02-08T04:45:07;-0.50;99.90
56374;DHT22;58212;47.034;7.376;2023-02-08T04:47:35;-0.50;99.90
56374;DHT22;58212;47.034;7.376;2023-02-08T04:50:03;-0.50;99.90
56374;DHT22;58212;47.034;7.376;2023-02-08T04:52:54;-0.60;99.90
56374;DHT22;58212;47.034;7.376;2023-02-08T04:55:22;-0.60;99.90
56374;DHT22;58212;47.034;7.376;2023-02-08T04:57:51;-0.60;99.90
56374;DHT22;58212;47.034;7.376;2023-02-08T05:00:18;-0.80;99.90
56374;DHT22;58212;47.034;7.376;2023-02-08T05:02:52;-0.70;99.90
56374;DHT22;58212;47.034;7.376;2023-02-08T05:05:20;-0.60;99.90
56374;DHT22;58212;47.034;7.376;2023-02-08T05:07:50;-0.90;99.90
56374;DHT22;58212;47.034;7.376;2023-02-08T05:10:19;-1.20;99.90
56374;DHT22;58212;47.034;7.376;2023-02-08T05:12:46;-1.00;99.90
56374;DHT22;58212;47.034;7.376;2023-02-08T05:15:16;-0.60;99.90
56374;DHT22;58212;47.034;7.376;2023-02-08T05:17:44;-0.60;99.90
56374;DHT22;58212;47.034;7.376;2023-02-08T05:20:12;-0.50;99.90
56374;DHT22;58212;47.034;7.376;2023-02-08T05:22:39;-0.50;99.90
56374;DHT22;58212;47.034;7.376;2023-02-08T05:25:07;-0.40;99.90
56374;DHT22;58212;47.034;7.376;2023-02-08T05:27:35;-0.70;99.90
56374;DHT22;58212;47.034;7.376;2023-02-08T05:30:03;-0.80;99.90
56374;DHT22;58212;47.034;7.376;2023-02-08T05:32:32;-1.00;99.90
56374;DHT22;58212;47.034;7.376;2023-02-08T05:34:59;-1.10;99.90
56374;DHT22;58212;47.034;7.376;2023-02-08T05:37:26;-0.80;99.90
56374;DHT22;58212;47.034;7.376;2023-02-08T05:39:53;-0.90;99.90
56374;DHT22;58212;47.034;7.376;2023-02-08T05:42:22;-0.70;99.90
56374;DHT22;58212;47.034;7.376;2023-02-08T05:44:49;-0.80;99.90
56374;DHT22;58212;47.034;7.376;2023-02-08T05:47:17;-1.00;99.90
56374;DHT22;58212;47.034;7.376;2023-02-08T05:49:45;-1.20;99.90
56374;DHT22;58212;47.034;7.376;2023-02-08T05:52:14;-1.00;99.90
56374;DHT22;58212;47.034;7.376;2023-02-08T05:54:41;-0.80;99.90
56374;DHT22;58212;47.034;7.376;2023-02-08T05:57:09;-0.90;99.90
56374;DHT22;58212;47.034;7.376;2023-02-08T05:59:36;-0.80;99.90
56374;DHT22;58212;47.034;7.376;2023-02-08T06:02:03;-0.80;99.90
56374;DHT22;58212;47.034;7.376;2023-02-08T06:04:30;-0.90;99.90
56374;DHT22;58212;47.034;7.376;2023-02-08T06:07:01;-1.20;99.90
56374;DHT22;58212;47.034;7.376;2023-02-08T06:09:28;-1.10;99.90
56374;DHT22;58212;47.034;7.376;2023-02-08T06:11:56;-0.90;99.90
56374;DHT22;58212;47.034;7.376;2023-02-08T06:14:23;-0.60;99.90
56374;DHT22;58212;47.034;7.376;2023-02-08T06:16:50;-0.80;99.90
56374;DHT22;58212;47.034;7.376;2023-02-08T06:19:18;-1.00;99.90
56374;DHT22;58212;47.034;7.376;2023-02-08T06:21:45;-0.90;99.90
56374;DHT22;58212;47.034;7.376;2023-02-08T06:24:16;-0.80;99.90
56374;DHT22;58212;47.034;7.376;2023-02-08T06:26:44;-0.80;99.90
56374;DHT22;58212;47.034;7.376;2023-02-08T06:29:11;-0.90;99.90
56374;DHT22;58212;47.034;7.376;2023-02-08T06:31:38;-0.70;99.90
56374;DHT22;58212;47.034;7.376;2023-02-08T06:34:05;-0.90;99.90
56374;DHT22;58212;47.034;7.376;2023-02-08T06:36:33;-0.70;99.90
56374;DHT22;58212;47.034;7.376;2023-02-08T06:39:00;-0.50;99.90
56374;DHT22;58212;47.034;7.376;2023-02-08T06:41:28;-0.80;99.90
56374;DHT22;58212;47.034;7.376;2023-02-08T06:43:55;-0.70;99.90
56374;DHT22;58212;47.034;7.376;2023-02-08T06:46:49;-0.60;99.90
56374;DHT22;58212;47.034;7.376;2023-02-08T06:49:16;-0.80;99.90
56374;DHT22;58212;47.034;7.376;2023-02-08T06:51:43;-0.90;99.90
56374;DHT22;58212;47.034;7.376;2023-02-08T06:54:10;-0.70;99.90
56374;DHT22;58212;47.034;7.376;2023-02-08T06:56:38;-0.90;99.90
56374;DHT22;58212;47.034;7.376;2023-02-08T06:59:05;-0.70;99.90
56374;DHT22;58212;47.034;7.376;2023-02-08T07:01:32;-1.00;99.90
56374;DHT22;58212;47.034;7.376;2023-02-08T07:04:01;-0.90;99.90
56374;DHT22;58212;47.034;7.376;2023-02-08T07:06:28;-0.60;99.90
56374;DHT22;58212;47.034;7.376;2023-02-08T07:09:21;-0.60;99.90
56374;DHT22;58212;47.034;7.376;2023-02-08T07:11:49;-1.10;99.90
56374;DHT22;58212;47.034;7.376;2023-02-08T07:14:16;-1.50;99.90
56374;DHT22;58212;47.034;7.376;2023-02-08T07:16:43;-1.30;99.90
56374;DHT22;58212;47.034;7.376;2023-02-08T07:19:11;-1.00;99.90
56374;DHT22;58212;47.034;7.376;2023-02-08T07:21:38;-1.00;99.90
56374;DHT22;58212;47.034;7.376;2023-02-08T07:24:05;-1.00;99.90
56374;DHT22;58212;47.034;7.376;2023-02-08T07:26:33;-0.90;99.90
56374;DHT22;58212;47.034;7.376;2023-02-08T07:29:02;-0.80;99.90
56374;DHT22;58212;47.034;7.376;2023-02-08T07:31:29;-0.80;99.90
56374;DHT22;58212;47.034;7.376;2023-02-08T07:33:58;-0.60;99.90
56374;DHT22;58212;47.034;7.376;2023-02-08T07:36:24;-0.50;99.90
56374;DHT22;58212;47.034;7.376;2023-02-08T07:38:52;-0.90;99.90
56374;DHT22;58212;47.034;7.376;2023-02-08T07:41:19;-1.20;99.90
56374;DHT22;58212;47.034;7.376;2023-02-08T07:43:46;-1.30;99.90
56374;DHT22;58212;47.034;7.376;2023-02-08T07:46:16;-1.00;99.90
56374;DHT22;58212;47.034;7.376;2023-02-08T07:48:43;-0.80;99.90
56374;DHT22;58212;47.034;7.376;2023-02-08T07:51:11;-0.80;99.90
56374;DHT22;58212;47.034;7.376;2023-02-08T07:53:38;-0.80;99.90
56374;DHT22;58212;47.034;7.376;2023-02-08T07:56:05;-0.80;99.90
56374;DHT22;58212;47.034;7.376;2023-02-08T07:58:32;-0.70;99.90
56374;DHT22;58212;47.034;7.376;2023-02-08T08:00:59;-0.80;99.90
56374;DHT22;58212;47.034;7.376;2023-02-08T08:03:28;-1.00;99.90
56374;DHT22;58212;47.034;7.376;2023-02-08T08:05:55;-0.60;99.90
56374;DHT22;58212;47.034;7.376;2023-02-08T08:08:22;-0.60;99.90
56374;DHT22;58212;47.034;7.376;2023-02-08T08:10:49;-0.60;99.90
56374;DHT22;58212;47.034;7.376;2023-02-08T08:13:16;-1.00;99.90
56374;DHT22;58212;47.034;7.376;2023-02-08T08:15:42;-1.10;99.90
56374;DHT22;58212;47.034;7.376;2023-02-08T08:18:10;-1.30;99.90
56374;DHT22;58212;47.034;7.376;2023-02-08T08:20:38;-1.40;99.90
56374;DHT22;58212;47.034;7.376;2023-02-08T08:23:05;-1.20;99.90
56374;DHT22;58212;47.034;7.376;2023-02-08T08:25:33;-1.00;99.90
56374;DHT22;58212;47.034;7.376;2023-02-08T08:28:00;-0.90;99.90
56374;DHT22;58212;47.034;7.376;2023-02-08T08:30:27;-1.00;99.90
56374;DHT22;58212;47.034;7.376;2023-02-08T08:32:55;-1.10;99.90
56374;DHT22;58212;47.034;7.376;2023-02-08T08:35:23;-1.00;99.90
56374;DHT22;58212;47.034;7.376;2023-02-08T08:37:51;-0.90;99.90
56374;DHT22;58212;47.034;7.376;2023-02-08T08:40:19;-0.70;99.90
56374;DHT22;58212;47.034;7.376;2023-02-08T08:42:46;-0.60;99.90
56374;DHT22;58212;47.034;7.376;2023-02-08T08:45:13;-0.50;99.90
56374;DHT22;58212;47.034;7.376;2023-02-08T08:47:40;-0.70;99.90
56374;DHT22;58212;47.034;7.376;2023-02-08T08:50:07;-0.90;99.90
56374;DHT22;58212;47.034;7.376;2023-02-08T08:52:34;-0.70;99.90
56374;DHT22;58212;47.034;7.376;2023-02-08T08:55:03;-0.80;99.90
56374;DHT22;58212;47.034;7.376;2023-02-08T08:57:30;-1.00;99.90
56374;DHT22;58212;47.034;7.376;2023-02-08T08:59:57;-1.10;99.90
56374;DHT22;58212;47.034;7.376;2023-02-08T09:02:24;-0.70;99.90
56374;DHT22;58212;47.034;7.376;2023-02-08T09:04:51;-1.00;99.90
56374;DHT22;58212;47.034;7.376;2023-02-08T09:07:44;-1.20;99.90
56374;DHT22;58212;47.034;7.376;2023-02-08T09:10:12;-0.80;99.90
56374;DHT22;58212;47.034;7.376;2023-02-08T09:12:39;-0.50;99.90
56374;DHT22;58212;47.034;7.376;2023-02-08T09:15:09;-0.60;99.90
56374;DHT22;58212;47.034;7.376;2023-02-08T09:17:37;-0.40;99.90
56374;DHT22;58212;47.034;7.376;2023-02-08T09:20:05;-0.70;99.90
56374;DHT22;58212;47.034;7.376;2023-02-08T09:22:36;-0.70;99.90
56374;DHT22;58212;47.034;7.376;2023-02-08T09:25:04;-0.70;99.90
56374;DHT22;58212;47.034;7.376;2023-02-08T09:27:34;-0.50;99.90
56374;DHT22;58212;47.034;7.376;2023-02-08T09:30:01;-0.40;99.90
56374;DHT22;58212;47.034;7.376;2023-02-08T09:32:30;-0.10;99.90
56374;DHT22;58212;47.034;7.376;2023-02-08T09:34:59;-0.10;99.90
56374;DHT22;58212;47.034;7.376;2023-02-08T09:37:27;-0.20;99.90
56374;DHT22;58212;47.034;7.376;2023-02-08T09:39:54;-0.40;99.90
56374;DHT22;58212;47.034;7.376;2023-02-08T09:42:36;-0.40;99.90
56374;DHT22;58212;47.034;7.376;2023-02-08T09:45:32;-0.40;99.90
56374;DHT22;58212;47.034;7.376;2023-02-08T09:48:14;-0.60;99.90
56374;DHT22;58212;47.034;7.376;2023-02-08T09:50:47;-0.90;99.90
56374;DHT22;58212;47.034;7.376;2023-02-08T09:53:18;-0.60;99.90
56374;DHT22;58212;47.034;7.376;2023-02-08T09:55:49;-0.60;99.90
56374;DHT22;58212;47.034;7.376;2023-02-08T09:58:23;-0.80;99.90
56374;DHT22;58212;47.034;7.376;2023-02-08T10:00:55;-1.00;99.90
56374;DHT22;58212;47.034;7.376;2023-02-08T10:03:32;-0.60;99.90
56374;DHT22;58212;47.034;7.376;2023-02-08T10:06:00;-0.50;99.90
56374;DHT22;58212;47.034;7.376;2023-02-08T10:08:28;-0.30;99.90
56374;DHT22;58212;47.034;7.376;2023-02-08T10:11:06;-0.60;99.90
56374;DHT22;58212;47.034;7.376;2023-02-08T10:13:59;-0.50;99.90
56374;DHT22;58212;47.034;7.376;2023-02-08T10:16:43;-0.30;99.90
56374;DHT22;58212;47.034;7.376;2023-02-08T10:19:25;-0.20;99.90
56374;DHT22;58212;47.034;7.376;2023-02-08T10:22:07;0.00;99.90
56374;DHT22;58212;47.034;7.376;2023-02-08T10:25:21;0.20;99.90
56374;DHT22;58212;47.034;7.376;2023-02-08T10:28:04;0.40;99.90
56374;DHT22;58212;47.034;7.376;2023-02-08T10:30:39;0.20;99.90
56374;DHT22;58212;47.034;7.376;2023-02-08T10:33:16;-0.10;99.90
56374;DHT22;58212;47.034;7.376;2023-02-08T10:36:13;0.30;99.90
56374;DHT22;58212;47.034;7.376;2023-02-08T10:38:41;-0.20;99.90
56374;DHT22;58212;47.034;7.376;2023-02-08T10:41:14;-0.20;99.90
56374;DHT22;58212;47.034;7.376;2023-02-08T10:43:50;0.10;99.90
56374;DHT22;58212;47.034;7.376;2023-02-08T10:46:24;0.40;99.90
56374;DHT22;58212;47.034;7.376;2023-02-08T10:49:01;0.50;99.90
56374;DHT22;58212;47.034;7.376;2023-02-08T10:51:34;0.10;99.90
56374;DHT22;58212;47.034;7.376;2023-02-08T10:54:01;0.10;99.90
56374;DHT22;58212;47.034;7.376;2023-02-08T10:56:36;0.20;99.90
56374;DHT22;58212;47.034;7.376;2023-02-08T10:59:12;0.50;99.90
56374;DHT22;58212;47.034;7.376;2023-02-08T11:01:41;0.70;99.90
56374;DHT22;58212;47.034;7.376;2023-02-08T11:04:10;0.60;99.90
56374;DHT22;58212;47.034;7.376;2023-02-08T11:06:41;0.50;99.90
56374;DHT22;58212;47.034;7.376;2023-02-08T11:09:22;0.70;99.90
56374;DHT22;58212;47.034;7.376;2023-02-08T11:11:50;0.30;99.90
56374;DHT22;58212;47.034;7.376;2023-02-08T11:14:21;0.80;99.90
56374;DHT22;58212;47.034;7.376;2023-02-08T11:16:52;0.70;99.90
56374;DHT22;58212;47.034;7.376;2023-02-08T11:19:31;0.60;99.90
56374;DHT22;58212;47.034;7.376;2023-02-08T11:22:00;0.90;99.90
56374;DHT22;58212;47.034;7.376;2023-02-08T11:24:32;0.70;99.90
56374;DHT22;58212;47.034;7.376;2023-02-08T11:27:15;0.60;99.90
56374;DHT22;58212;47.034;7.376;2023-02-08T11:29:43;0.90;99.90
56374;DHT22;58212;47.034;7.376;2023-02-08T11:32:17;0.90;99.90
56374;DHT22;58212;47.034;7.376;2023-02-08T11:34:44;0.60;99.90
56374;DHT22;58212;47.034;7.376;2023-02-08T11:37:14;0.80;99.90
56374;DHT22;58212;47.034;7.376;2023-02-08T11:39:44;1.00;99.90
56374;DHT22;58212;47.034;7.376;2023-02-08T11:42:19;1.00;99.90
56374;DHT22;58212;47.034;7.376;2023-02-08T11:44:47;0.80;99.90
56374;DHT22;58212;47.034;7.376;2023-02-08T11:47:22;1.10;99.90
56374;DHT22;58212;47.034;7.376;2023-02-08T11:49:52;1.10;99.90
56374;DHT22;58212;47.034;7.376;2023-02-08T11:52:21;1.10;99.90
56374;DHT22;58212;47.034;7.376;2023-02-08T11:54:51;1.20;99.90
56374;DHT22;58212;47.034;7.376;2023-02-08T11:57:21;0.80;99.90
56374;DHT22;58212;47.034;7.376;2023-02-08T11:59:49;0.60;99.90
56374;DHT22;58212;47.034;7.376;2023-02-08T12:06:16;1.00;99.90
56374;DHT22;58212;47.034;7.376;2023-02-08T12:08:55;1.00;99.90
56374;DHT22;58212;47.034;7.376;2023-02-08T12:11:32;1.00;99.90
56374;DHT22;58212;47.034;7.376;2023-02-08T12:14:37;0.90;99.90
56374;DHT22;58212;47.034;7.376;2023-02-08T12:17:29;0.80;99.90
56374;DHT22;58212;47.034;7.376;2023-02-08T12:20:20;0.80;99.90
56374;DHT22;58212;47.034;7.376;2023-02-08T12:22:58;0.40;99.90
56374;DHT22;58212;47.034;7.376;2023-02-08T12:25:33;0.40;99.90
56374;DHT22;58212;47.034;7.376;2023-02-08T12:28:40;0.80;99.90
56374;DHT22;58212;47.034;7.376;2023-02-08T12:31:17;0.60;99.90
56374;DHT22;58212;47.034;7.376;2023-02-08T12:33:57;0.40;99.90
56374;DHT22;58212;47.034;7.376;2023-02-08T12:36:42;0.90;99.90
56374;DHT22;58212;47.034;7.376;2023-02-08T12:39:28;0.90;99.90
56374;DHT22;58212;47.034;7.376;2023-02-08T12:42:30;0.90;99.90
56374;DHT22;58212;47.034;7.376;2023-02-08T12:48:26;1.00;99.90
56374;DHT22;58212;47.034;7.376;2023-02-08T12:51:03;0.80;99.90
56374;DHT22;58212;47.034;7.376;2023-02-08T12:53:36;0.80;99.90
56374;DHT22;58212;47.034;7.376;2023-02-08T12:56:12;0.80;99.90
56374;DHT22;58212;47.034;7.376;2023-02-08T12:58:44;0.70;99.90
56374;DHT22;58212;47.034;7.376;2023-02-08T13:01:41;1.00;99.90
56374;DHT22;58212;47.034;7.376;2023-02-08T13:04:12;0.90;99.90
56374;DHT22;58212;47.034;7.376;2023-02-08T13:06:42;0.90;99.90
56374;DHT22;58212;47.034;7.376;2023-02-08T13:09:15;0.60;99.90
56374;DHT22;58212;47.034;7.376;2023-02-08T13:11:49;0.80;99.90
56374;DHT22;58212;47.034;7.376;2023-02-08T13:14:27;1.30;99.90
56374;DHT22;58212;47.034;7.376;2023-02-08T13:17:02;0.80;99.90
56374;DHT22;58212;47.034;7.376;2023-02-08T13:19:32;0.80;99.90
56374;DHT22;58212;47.034;7.376;2023-02-08T13:22:04;0.90;99.90
56374;DHT22;58212;47.034;7.376;2023-02-08T13:24:34;0.90;99.90
56374;DHT22;58212;47.034;7.376;2023-02-08T13:27:04;0.80;99.90
56374;DHT22;58212;47.034;7.376;2023-02-08T13:29:34;0.90;99.90
56374;DHT22;58212;47.034;7.376;2023-02-08T13:32:04;0.80;99.90
56374;DHT22;58212;47.034;7.376;2023-02-08T13:34:34;0.70;99.90
56374;DHT22;58212;47.034;7.376;2023-02-08T13:37:05;0.60;99.90
56374;DHT22;58212;47.034;7.376;2023-02-08T13:39:36;0.70;99.90
56374;DHT22;58212;47.034;7.376;2023-02-08T13:42:19;0.90;99.90
56374;DHT22;58212;47.034;7.376;2023-02-08T13:44:49;0.80;99.90
56374;DHT22;58212;47.034;7.376;2023-02-08T13:47:23;0.90;99.90
56374;DHT22;58212;47.034;7.376;2023-02-08T13:49:55;1.00;99.90
56374;DHT22;58212;47.034;7.376;2023-02-08T13:52:47;1.10;99.90
56374;DHT22;58212;47.034;7.376;2023-02-08T13:55:40;0.90;99.90
56374;DHT22;58212;47.034;7.376;2023-02-08T14:01:21;0.70;99.90
56374;DHT22;58212;47.034;7.376;2023-02-08T14:04:28;0.70;99.90
56374;DHT22;58212;47.034;7.376;2023-02-08T14:07:00;0.70;99.90
56374;DHT22;58212;47.034;7.376;2023-02-08T14:09:45;1.40;99.90
56374;DHT22;58212;47.034;7.376;2023-02-08T14:12:22;1.30;99.90
56374;DHT22;58212;47.034;7.376;2023-02-08T14:18:03;1.00;99.90
56374;DHT22;58212;47.034;7.376;2023-02-08T14:20:34;1.00;99.90
56374;DHT22;58212;47.034;7.376;2023-02-08T14:23:06;0.80;99.90
56374;DHT22;58212;47.034;7.376;2023-02-08T14:25:45;0.90;99.90
56374;DHT22;58212;47.034;7.376;2023-02-08T14:28:28;0.60;99.90
56374;DHT22;58212;47.034;7.376;2023-02-08T14:31:21;0.70;99.90
56374;DHT22;58212;47.034;7.376;2023-02-08T14:33:53;1.00;99.90
56374;DHT22;58212;47.034;7.376;2023-02-08T14:36:27;0.90;99.90
56374;DHT22;58212;47.034;7.376;2023-02-08T14:39:21;0.80;99.90
56374;DHT22;58212;47.034;7.376;2023-02-08T14:41:54;1.00;99.90
56374;DHT22;58212;47.034;7.376;2023-02-08T14:45:03;1.10;99.90
56374;DHT22;58212;47.034;7.376;2023-02-08T14:47:53;1.20;99.90
56374;DHT22;58212;47.034;7.376;2023-02-08T14:50:26;1.20;99.90
56374;DHT22;58212;47.034;7.376;2023-02-08T14:53:00;1.20;99.90
56374;DHT22;58212;47.034;7.376;2023-02-08T14:55:31;1.10;99.90
56374;DHT22;58212;47.034;7.376;2023-02-08T14:58:00;1.20;99.90
56374;DHT22;58212;47.034;7.376;2023-02-08T15:00:32;1.30;99.90
56374;DHT22;58212;47.034;7.376;2023-02-08T15:03:00;1.20;99.90
56374;DHT22;58212;47.034;7.376;2023-02-08T15:05:36;1.00;99.90
56374;DHT22;58212;47.034;7.376;2023-02-08T15:08:07;0.90;99.90
56374;DHT22;58212;47.034;7.376;2023-02-08T15:11:00;1.10;99.90
56374;DHT22;58212;47.034;7.376;2023-02-08T15:13:28;1.00;99.90
56374;DHT22;58212;47.034;7.376;2023-02-08T15:15:56;0.90;99.90
56374;DHT22;58212;47.034;7.376;2023-02-08T15:18:27;0.90;99.90
56374;DHT22;58212;47.034;7.376;2023-02-08T15:21:04;1.10;99.90
56374;DHT22;58212;47.034;7.376;2023-02-08T15:23:32;1.10;99.90
56374;DHT22;58212;47.034;7.376;2023-02-08T15:26:01;1.20;99.90
56374;DHT22;58212;47.034;7.376;2023-02-08T15:28:32;1.00;99.90
56374;DHT22;58212;47.034;7.376;2023-02-08T15:31:03;1.10;99.90
56374;DHT22;58212;47.034;7.376;2023-02-08T15:33:32;1.00;99.90
56374;DHT22;58212;47.034;7.376;2023-02-08T15:36:02;1.10;99.90
56374;DHT22;58212;47.034;7.376;2023-02-08T15:38:30;1.00;99.90
56374;DHT22;58212;47.034;7.376;2023-02-08T15:41:00;1.10;99.90
56374;DHT22;58212;47.034;7.376;2023-02-08T15:43:28;1.10;99.90
56374;DHT22;58212;47.034;7.376;2023-02-08T15:45:56;1.00;99.90
56374;DHT22;58212;47.034;7.376;2023-02-08T15:48:27;1.10;99.90
56374;DHT22;58212;47.034;7.376;2023-02-08T15:50:55;1.30;99.90
56374;DHT22;58212;47.034;7.376;2023-02-08T15:53:24;0.90;99.90
56374;DHT22;58212;47.034;7.376;2023-02-08T15:55:55;0.90;99.90
56374;DHT22;58212;47.034;7.376;2023-02-08T15:58:50;0.90;99.90
56374;DHT22;58212;47.034;7.376;2023-02-08T16:01:21;1.00;99.90
56374;DHT22;58212;47.034;7.376;2023-02-08T16:03:48;1.00;99.90
56374;DHT22;58212;47.034;7.376;2023-02-08T16:06:21;1.10;99.90
56374;DHT22;58212;47.034;7.376;2023-02-08T16:08:53;1.00;99.90
56374;DHT22;58212;47.034;7.376;2023-02-08T16:11:23;0.50;99.90
56374;DHT22;58212;47.034;7.376;2023-02-08T16:13:54;0.60;99.90
56374;DHT22;58212;47.034;7.376;2023-02-08T16:16:24;0.60;99.90
56374;DHT22;58212;47.034;7.376;2023-02-08T16:18:59;0.70;99.90
56374;DHT22;58212;47.034;7.376;2023-02-08T16:21:30;0.70;99.90
56374;DHT22;58212;47.034;7.376;2023-02-08T16:24:05;0.80;99.90
56374;DHT22;58212;47.034;7.376;2023-02-08T16:26:38;0.80;99.90
56374;DHT22;58212;47.034;7.376;2023-02-08T16:29:15;0.80;99.90
56374;DHT22;58212;47.034;7.376;2023-02-08T16:31:47;0.70;99.90
56374;DHT22;58212;47.034;7.376;2023-02-08T16:34:16;0.60;99.90